Time;durP1;ratioP1;P1;durP2;ratioP2;P2;SDS_P1;SDS_P2;PMS_P1;PMS_P2;Temp;Humidity;BMP_temperature;BMP_pressure;BME280_temperature;BME280_humidity;BME280_pressure;Samples;Min_cycle;Max_cycle;Signal;HPM_P1;HPM_P2
2023/05/24 00:01:55;;;;;;;4.85;4.45;;;14.00;99.90;;;14.72;73.87;98200.06;5193966;28;20648;-69
2023/05/24 00:04:28;;;;;;;5.55;5.03;;;14.00;99.90;;;14.68;72.79;98199.84;5201893;28;20725;-68
2023/05/24 00:07:02;;;;;;;5.03;4.45;;;13.90;99.90;;;14.72;72.71;98199.19;5194923;28;20257;-70
2023/05/24 00:09:37;;;;;;;4.82;4.43;;;13.90;99.90;;;14.62;73.36;98197.88;5200828;28;20225;-69
2023/05/24 00:12:10;;;;;;;4.85;4.45;;;13.90;99.90;;;14.68;73.04;98190.47;5196192;28;20221;-69
2023/05/24 00:14:43;;;;;;;5.15;4.65;;;13.90;99.90;;;14.53;72.06;98185.47;5198584;28;20225;-68
2023/05/24 00:17:16;;;;;;;4.82;4.43;;;13.80;99.90;;;14.37;72.83;98183.84;5193109;28;20229;-71
2023/05/24 00:19:49;;;;;;;5.65;4.28;;;13.70;99.90;;;14.33;72.94;98174.22;5201146;28;20320;-69
2023/05/24 00:22:23;;;;;;;5.30;4.90;;;13.60;99.90;;;14.36;72.11;98179.50;5198475;28;20237;-69
2023/05/24 00:24:58;;;;;;;5.30;4.78;;;13.60;99.90;;;14.06;73.04;98172.91;5196101;28;20218;-69
2023/05/24 00:27:31;;;;;;;5.07;4.68;;;13.50;99.90;;;14.20;72.83;98171.88;5196984;28;20249;-69
2023/05/24 00:30:06;;;;;;;5.32;4.88;;;13.50;99.90;;;14.21;72.86;98168.50;5198180;28;20307;-69
2023/05/24 00:32:39;;;;;;;5.40;4.70;;;13.50;99.90;;;14.16;72.60;98173.44;5197255;28;20222;-70
2023/05/24 00:35:12;;;;;;;6.18;4.80;;;13.50;99.90;;;14.28;72.26;98162.84;5196466;28;20604;-69
2023/05/24 00:37:46;;;;;;;6.22;5.00;;;13.50;99.90;;;14.37;73.26;98167.53;5199982;28;20245;-68
2023/05/24 00:40:21;;;;;;;5.60;4.95;;;13.60;99.90;;;14.41;72.32;98159.16;5202236;28;20268;-69
2023/05/24 00:42:54;;;;;;;5.43;4.90;;;13.60;99.90;;;14.27;71.69;98155.94;5202195;28;20243;-69
2023/05/24 00:45:27;;;;;;;5.63;5.03;;;13.60;99.90;;;14.23;71.67;98158.28;5197262;28;20496;-68
2023/05/24 00:48:00;;;;;;;4.95;4.45;;;13.50;99.90;;;14.22;72.64;98156.50;5199693;28;20313;-69
2023/05/24 00:50:33;;;;;;;5.72;4.75;;;13.50;99.90;;;14.28;72.73;98149.09;5202941;28;20278;-69
2023/05/24 00:53:07;;;;;;;6.63;5.05;;;13.50;99.90;;;14.10;71.11;98162.84;5212104;28;20244;-69
2023/05/24 00:55:42;;;;;;;6.30;4.60;;;13.40;99.90;;;14.13;71.31;98150.13;5203281;28;20245;-70
2023/05/24 00:58:16;;;;;;;4.88;4.45;;;13.40;99.90;;;14.20;69.88;98154.75;5202956;28;20259;-69
2023/05/24 01:00:51;;;;;;;5.13;4.63;;;13.40;99.90;;;14.06;70.81;98158.38;5202987;28;20306;-70
2023/05/24 01:03:24;;;;;;;5.47;4.90;;;13.30;99.90;;;14.20;70.27;98159.03;5202276;28;20308;-69
2023/05/24 01:06:00;;;;;;;5.85;5.00;;;13.40;99.90;;;14.15;71.09;98163.94;5208769;28;20209;-69
2023/05/24 01:08:57;;;;;;;4.82;4.25;;;13.40;99.90;;;14.17;71.22;98156.31;5204589;28;20271;-69
2023/05/24 01:11:46;;;;;;;5.93;4.88;;;13.40;99.90;;;14.19;70.11;98150.44;5200601;28;20233;-69
2023/05/24 01:14:27;;;;;;;6.35;5.35;;;13.40;99.90;;;13.86;70.07;98146.25;5203935;28;20704;-69
2023/05/24 01:17:08;;;;;;;6.57;5.30;;;13.20;99.90;;;13.88;71.16;98154.91;5205103;28;20283;-69
2023/05/24 01:19:52;;;;;;;6.35;5.60;;;13.20;99.90;;;13.77;71.19;98156.94;5191649;28;20222;-69
2023/05/24 01:23:15;;;;;;;7.43;5.63;;;13.20;99.90;;;13.49;70.75;98153.00;5203925;28;20313;-69
2023/05/24 01:26:09;;;;;;;5.78;5.25;;;12.90;99.90;;;13.72;71.13;98160.97;5188857;28;20229;-69
2023/05/24 01:28:44;;;;;;;7.78;5.03;;;13.00;99.90;;;13.76;69.68;98157.72;5201932;28;20249;-70
2023/05/24 01:31:19;;;;;;;6.28;5.55;;;13.10;99.90;;;13.68;69.53;98164.22;5205404;28;20229;-69
2023/05/24 01:33:52;;;;;;;6.85;5.07;;;13.00;99.90;;;13.67;69.19;98155.59;5203298;28;20212;-69
2023/05/24 01:36:25;;;;;;;5.25;4.72;;;13.00;99.90;;;13.71;70.42;98154.97;5200541;28;20238;-69
2023/05/24 01:38:58;;;;;;;7.60;5.03;;;13.00;99.90;;;13.72;69.58;98155.84;5193389;28;20312;-69
2023/05/24 01:41:40;;;;;;;6.10;5.03;;;13.00;99.90;;;13.64;70.39;98159.72;5198371;28;20674;-69
2023/05/24 01:44:26;;;;;;;6.60;5.03;;;12.90;99.90;;;13.57;69.82;98155.09;5208854;28;20226;-69
2023/05/24 01:47:12;;;;;;;5.97;4.68;;;12.80;99.90;;;13.42;69.87;98158.66;5196238;28;20285;-69
2023/05/24 01:49:55;;;;;;;7.80;5.10;;;12.70;99.90;;;13.41;70.79;98156.88;5205321;28;20329;-69
2023/05/24 01:52:32;;;;;;;6.13;4.80;;;12.70;99.90;;;13.45;70.31;98161.38;5203184;28;20622;-69
2023/05/24 01:55:09;;;;;;;5.40;4.90;;;12.70;99.90;;;13.40;70.37;98167.94;5199995;28;20305;-69
2023/05/24 01:57:46;;;;;;;6.68;4.90;;;12.70;99.90;;;13.38;71.50;98160.97;5205380;28;20276;-69
2023/05/24 02:00:22;;;;;;;6.97;4.90;;;12.70;99.90;;;13.41;71.65;98171.41;5204288;28;20657;-69
2023/05/24 02:02:56;;;;;;;8.02;4.93;;;12.70;99.90;;;13.43;72.19;98165.53;5204270;28;20226;-69
2023/05/24 02:05:29;;;;;;;7.32;5.30;;;12.70;99.90;;;13.39;71.91;98167.84;5195273;28;20230;-69
2023/05/24 02:08:02;;;;;;;7.40;5.00;;;12.60;99.90;;;13.41;72.10;98171.41;5206946;28;20554;-69
2023/05/24 02:10:37;;;;;;;7.32;5.55;;;12.60;99.90;;;13.39;72.85;98167.84;5212567;28;20828;-69
2023/05/24 02:13:10;;;;;;;7.03;4.90;;;12.60;99.90;;;13.35;72.96;98177.09;5200129;28;20221;-69
2023/05/24 02:15:45;;;;;;;6.43;4.80;;;12.50;99.90;;;13.33;73.93;98180.38;5199969;28;20260;-69
2023/05/24 02:18:18;;;;;;;7.43;5.43;;;12.50;99.90;;;13.36;73.76;98172.84;5200904;28;20283;-69
2023/05/24 02:20:51;;;;;;;6.40;5.18;;;12.50;99.90;;;13.34;74.29;98170.22;5203707;28;21174;-69
2023/05/24 02:23:25;;;;;;;7.93;5.07;;;12.50;99.90;;;13.27;73.43;98178.38;5203841;28;20321;-70
2023/05/24 02:25:58;;;;;;;7.57;5.10;;;12.50;99.90;;;13.29;74.42;98174.22;5200819;28;20697;-69
2023/05/24 02:28:31;;;;;;;8.35;5.60;;;12.50;99.90;;;13.29;73.61;98184.50;5197575;28;20596;-69
2023/05/24 02:31:07;;;;;;;7.13;4.80;;;12.50;99.90;;;13.27;74.25;98186.09;5202126;28;20312;-69
2023/05/24 02:33:40;;;;;;;7.35;5.28;;;12.40;99.90;;;13.28;74.09;98183.63;5204330;28;20300;-69
2023/05/24 02:36:13;;;;;;;7.10;5.00;;;12.40;99.90;;;13.31;73.19;98185.47;5196178;28;20295;-69
2023/05/24 02:38:46;;;;;;;6.93;4.88;;;12.40;99.90;;;13.32;74.12;98192.34;5200927;28;20767;-68
2023/05/24 02:41:20;;;;;;;7.00;5.20;;;12.50;99.90;;;13.31;73.71;98190.59;5197500;28;20316;-69
2023/05/24 02:43:53;;;;;;;7.88;5.07;;;12.50;99.90;;;13.37;73.27;98190.03;5202193;28;20222;-69
2023/05/24 02:46:28;;;;;;;6.82;5.25;;;12.50;99.90;;;13.40;72.90;98185.03;5199309;28;20303;-69
2023/05/24 02:49:01;;;;;;;8.30;4.90;;;12.60;99.90;;;13.40;72.80;98180.78;5203144;28;20225;-70
2023/05/24 02:51:35;;;;;;;8.40;5.20;;;12.50;99.90;;;13.37;72.12;98179.75;5198573;28;20218;-69
2023/05/24 02:54:08;;;;;;;6.00;4.72;;;12.60;99.90;;;13.36;72.81;98183.97;5202690;28;20229;-69
2023/05/24 02:56:41;;;;;;;8.32;5.53;;;12.50;99.90;;;13.35;72.75;98177.09;5209912;28;20217;-69
2023/05/24 02:59:15;;;;;;;6.68;4.85;;;12.50;99.90;;;13.34;73.48;98185.63;5201036;28;20815;-69
2023/05/24 03:01:49;;;;;;;7.00;4.78;;;12.50;99.90;;;13.30;73.47;98178.53;5197584;28;20254;-70
2023/05/24 03:04:22;;;;;;;6.88;4.93;;;12.50;99.90;;;13.30;72.73;98175.97;5201984;28;20739;-69
2023/05/24 03:06:55;;;;;;;7.95;5.43;;;12.50;99.90;;;13.29;74.10;98176.78;5200123;28;20287;-69
2023/05/24 03:09:28;;;;;;;8.00;5.57;;;12.40;99.90;;;13.25;73.83;98183.47;5202866;28;20229;-69
2023/05/24 03:12:01;;;;;;;8.02;5.35;;;12.40;99.90;;;13.23;74.58;98182.44;5199466;28;20641;-69
2023/05/24 03:14:34;;;;;;;6.15;5.25;;;12.40;99.90;;;13.21;74.26;98178.03;5200254;28;20296;-68
2023/05/24 03:17:09;;;;;;;6.85;5.43;;;12.40;99.90;;;13.15;75.70;98176.03;5201079;28;20309;-69
2023/05/24 03:19:42;;;;;;;10.18;5.97;;;12.30;99.90;;;13.15;75.25;98186.31;5200824;28;20298;-68
2023/05/24 03:22:15;;;;;;;9.02;5.97;;;12.30;99.90;;;13.17;74.19;98178.69;5197041;28;20230;-69
2023/05/24 03:24:48;;;;;;;10.35;5.50;;;12.30;99.90;;;13.17;74.44;98181.25;5195613;28;20313;-69
2023/05/24 03:27:21;;;;;;;6.43;5.07;;;12.40;99.90;;;13.17;74.51;98177.00;5192951;28;20221;-69
2023/05/24 03:29:54;;;;;;;7.15;5.65;;;12.40;99.90;;;13.21;74.96;98180.59;5196683;28;20859;-69
2023/05/24 03:32:29;;;;;;;6.35;4.90;;;12.40;99.90;;;13.19;75.33;98189.91;5198872;28;20767;-69
2023/05/24 03:35:02;;;;;;;9.05;5.88;;;12.40;99.90;;;13.02;74.12;98181.31;5196252;28;20222;-69
2023/05/24 03:37:35;;;;;;;9.20;5.53;;;12.20;99.90;;;12.94;74.19;98188.63;5199577;28;20279;-68
2023/05/24 03:40:09;;;;;;;8.57;5.78;;;12.20;99.90;;;12.94;74.47;98188.63;5203920;28;20225;-69
2023/05/24 03:42:42;;;;;;;8.95;6.03;;;12.20;99.90;;;12.95;74.09;98187.81;5197613;28;20220;-68
2023/05/24 03:45:16;;;;;;;6.05;5.45;;;12.10;99.90;;;13.03;74.69;98191.69;5199505;28;20230;-69
2023/05/24 03:48:04;;;;;;;6.47;5.82;;;12.20;99.90;;;12.93;73.37;98181.72;5196040;28;20226;-69
2023/05/24 03:50:37;;;;;;;9.13;6.60;;;12.20;99.90;;;12.81;73.98;98175.94;5198115;28;20229;-69
2023/05/24 03:53:10;;;;;;;8.07;5.80;;;12.10;99.90;;;12.68;74.60;98173.53;5193625;28;20283;-69
2023/05/24 03:55:43;;;;;;;7.25;5.57;;;12.00;99.90;;;12.70;74.56;98177.03;5196209;28;20660;-69
2023/05/24 03:58:17;;;;;;;10.65;5.80;;;12.00;99.90;;;12.72;74.65;98188.28;5203928;28;20986;-68
2023/05/24 04:00:50;;;;;;;6.95;5.88;;;11.90;99.90;;;12.77;75.00;98179.16;5196469;28;20258;-69
2023/05/24 04:03:25;;;;;;;9.82;6.15;;;12.00;99.90;;;12.74;74.85;98179.00;5198545;28;20304;-69
2023/05/24 04:05:58;;;;;;;9.25;5.72;;;12.00;99.90;;;12.80;74.25;98179.31;5194652;28;20348;-69
2023/05/24 04:08:31;;;;;;;6.57;5.95;;;12.00;99.90;;;12.81;74.48;98181.06;5203337;28;20356;-68
2023/05/24 04:11:05;;;;;;;6.97;5.03;;;12.00;99.90;;;12.85;73.77;98170.19;5195905;28;21626;-69
2023/05/24 04:13:38;;;;;;;8.35;5.68;;;12.00;99.90;;;12.87;73.62;98168.56;5203142;28;20729;-69
2023/05/24 04:16:12;;;;;;;7.97;5.70;;;12.00;99.90;;;12.81;74.23;98175.94;5198208;28;20226;-68
2023/05/24 04:18:47;;;;;;;14.27;6.63;;;12.00;99.90;;;12.96;73.30;98171.66;5193659;28;20240;-69
2023/05/24 04:21:21;;;;;;;10.73;5.75;;;12.10;99.90;;;12.95;72.54;98175.00;5199033;28;20229;-69
2023/05/24 04:23:54;;;;;;;8.35;5.60;;;12.10;99.90;;;12.82;72.11;98178.59;5198572;28;20229;-69
2023/05/24 04:26:28;;;;;;;10.68;6.60;;;11.90;99.90;;;12.88;73.27;98174.56;5194524;28;20225;-69
2023/05/24 04:29:02;;;;;;;9.25;5.97;;;12.00;99.90;;;12.89;73.58;98174.66;5194990;28;20224;-68
2023/05/24 04:31:35;;;;;;;9.38;5.75;;;12.00;99.90;;;12.89;73.04;98174.66;5198404;28;20710;-68
2023/05/24 04:34:13;;;;;;;10.13;5.90;;;12.10;99.90;;;12.92;73.42;98179.97;5199929;28;20666;-69
2023/05/24 04:36:48;;;;;;;10.07;6.28;;;12.10;99.90;;;12.88;72.81;98175.47;5195597;28;20729;-68
2023/05/24 04:39:21;;;;;;;10.18;5.80;;;12.10;99.90;;;12.94;72.83;98173.25;5196420;28;20218;-70
2023/05/24 04:41:56;;;;;;;10.85;6.35;;;12.10;99.90;;;12.94;72.40;98178.38;5194734;28;20654;-68
2023/05/24 04:44:30;;;;;;;9.15;6.03;;;12.10;99.90;;;12.96;71.88;98184.47;5195571;28;20658;-69
2023/05/24 04:47:03;;;;;;;9.38;5.93;;;12.20;99.90;;;12.78;72.46;98180.91;5197246;28;20777;-69
2023/05/24 04:49:38;;;;;;;10.23;5.85;;;12.10;99.90;;;12.78;72.41;98186.91;5192060;28;20295;-68
2023/05/24 04:52:11;;;;;;;9.27;5.72;;;12.00;99.90;;;12.86;73.06;98184.78;5196870;28;20229;-67
2023/05/24 04:54:44;;;;;;;8.73;5.93;;;12.00;99.90;;;12.93;72.86;98191.97;5201192;28;20606;-68
2023/05/24 04:57:17;;;;;;;7.38;5.97;;;12.10;99.90;;;12.93;72.35;98193.66;5189500;28;20226;-69
2023/05/24 04:59:51;;;;;;;6.70;5.13;;;12.10;99.90;;;12.92;72.09;98191.91;5198854;28;20225;-69
2023/05/24 05:02:25;;;;;;;9.43;5.82;;;12.10;99.90;;;12.80;71.56;98195.59;5194959;28;20237;-69
2023/05/24 05:04:59;;;;;;;12.43;6.35;;;12.00;99.90;;;12.59;73.04;98197.88;5199294;28;20245;-69
2023/05/24 05:07:32;;;;;;;9.25;5.97;;;11.90;99.90;;;12.55;73.45;98193.38;5187934;28;20275;-69
2023/05/24 05:10:07;;;;;;;9.90;6.28;;;11.90;99.90;;;12.38;73.32;98200.13;5192636;28;20321;-69
2023/05/24 05:12:40;;;;;;;6.28;5.38;;;11.80;99.90;;;12.49;72.99;98211.00;5196190;28;20643;-69
2023/05/24 05:15:13;;;;;;;10.27;6.32;;;11.80;99.90;;;12.47;73.20;98204.88;5198585;28;20222;-69
2023/05/24 05:17:46;;;;;;;9.68;6.05;;;11.80;99.90;;;12.45;73.36;98203.94;5195529;28;20642;-69
2023/05/24 05:20:22;;;;;;;10.90;5.65;;;11.70;99.90;;;12.60;73.34;98211.59;5196927;28;20233;-69
2023/05/24 05:22:55;;;;;;;8.85;6.70;;;11.80;99.90;;;12.61;72.71;98210.78;5197824;28;20227;-68
2023/05/24 05:25:29;;;;;;;10.10;5.85;;;11.90;99.90;;;12.58;72.91;98210.59;5198651;28;20648;-68
2023/05/24 05:28:02;;;;;;;10.10;6.45;;;11.80;99.90;;;12.73;73.15;98211.44;5200060;28;20270;-69
2023/05/24 05:30:35;;;;;;;9.35;5.70;;;12.00;99.90;;;12.79;72.02;98208.31;5201446;28;20221;-68
2023/05/24 05:33:08;;;;;;;10.05;6.20;;;12.00;99.90;;;12.38;72.87;98220.63;5198355;28;20697;-68
2023/05/24 05:35:43;;;;;;;8.73;5.82;;;11.80;99.90;;;12.54;72.61;98206.13;5197951;28;20222;-68
2023/05/24 05:38:16;;;;;;;11.07;6.20;;;11.80;99.90;;;12.65;72.66;98204.13;5190918;28;20325;-68
2023/05/24 05:40:49;;;;;;;7.65;5.25;;;12.00;99.90;;;12.72;72.19;98204.53;5198088;28;20234;-68
2023/05/24 05:43:23;;;;;;;8.88;6.32;;;12.00;99.90;;;12.77;72.56;98210.81;5202140;28;20230;-68
2023/05/24 05:45:56;;;;;;;11.50;6.32;;;12.10;99.90;;;12.93;72.70;98198.78;5200026;28;20221;-68
2023/05/24 05:48:30;;;;;;;9.98;5.90;;;12.20;99.90;;;13.06;72.75;98201.22;5208692;28;20233;-69
2023/05/24 05:51:04;;;;;;;11.43;5.63;;;12.30;99.90;;;13.04;70.21;98198.56;5207273;28;20252;-69
2023/05/24 05:53:37;;;;;;;8.65;5.80;;;12.40;99.90;;;13.01;69.30;98200.97;5206780;28;20267;-69
2023/05/24 05:56:10;;;;;;;8.15;5.75;;;12.30;99.90;;;13.15;69.25;98203.38;5202103;28;20260;-69
2023/05/24 05:58:43;;;;;;;9.27;5.95;;;12.40;99.90;;;13.13;69.26;98202.41;5202052;28;20249;-69
2023/05/24 06:01:16;;;;;;;9.50;6.10;;;12.30;99.90;;;12.90;68.67;98202.06;5199052;28;20234;-69
2023/05/24 06:03:51;;;;;;;9.95;6.10;;;12.20;99.90;;;12.61;69.20;98197.94;5204749;28;20643;-68
2023/05/24 06:06:25;;;;;;;9.40;5.80;;;12.10;99.90;;;12.78;70.09;98199.75;5205608;28;20236;-68
2023/05/24 06:08:59;;;;;;;9.68;5.88;;;12.10;99.90;;;12.76;70.14;98205.59;5194694;28;20272;-69
2023/05/24 06:11:32;;;;;;;10.30;6.05;;;12.10;99.90;;;12.60;69.92;98203.88;5208091;28;20316;-69
2023/05/24 06:14:05;;;;;;;11.95;6.75;;;12.00;99.90;;;12.50;70.05;98199.91;5197737;28;20230;-68
2023/05/24 06:16:42;;;;;;;8.20;5.30;;;12.00;99.90;;;12.87;69.05;98207.06;5197189;28;20233;-69
2023/05/24 06:19:17;;;;;;;8.85;6.18;;;12.10;99.90;;;13.05;68.58;98202.91;5197953;28;20232;-69
2023/05/24 06:21:51;;;;;;;7.38;5.90;;;12.30;99.90;;;13.27;67.39;98204.06;5197982;28;20226;-69
2023/05/24 06:24:24;;;;;;;10.85;6.20;;;12.50;99.90;;;13.28;67.97;98205.84;5197445;28;20287;-68
2023/05/24 06:26:58;;;;;;;9.27;6.00;;;12.60;99.90;;;13.85;65.50;98195.84;5200983;28;20222;-68
2023/05/24 06:29:31;;;;;;;12.43;6.25;;;12.90;99.90;;;14.10;65.21;98193.69;5204854;28;20225;-69
2023/05/24 06:32:05;;;;;;;9.48;5.93;;;13.20;99.90;;;14.22;64.14;98202.78;5194013;28;20710;-69
2023/05/24 06:34:38;;;;;;;10.55;6.25;;;13.20;99.90;;;14.18;63.69;98199.19;5193574;28;20253;-68
2023/05/24 06:37:13;;;;;;;9.93;5.65;;;13.30;99.90;;;14.29;64.58;98200.59;5200894;28;20276;-68
2023/05/24 06:39:46;;;;;;;11.18;5.68;;;13.40;99.90;;;14.13;64.09;98204.09;5192741;28;20232;-68
2023/05/24 06:42:20;;;;;;;10.30;5.82;;;13.40;99.90;;;14.07;64.97;98203.81;5198913;28;20280;-68
2023/05/24 06:44:53;;;;;;;11.88;5.70;;;13.30;99.90;;;14.04;64.58;98201.09;5208435;28;20587;-70
2023/05/24 06:47:26;;;;;;;11.32;6.10;;;13.20;99.90;;;14.28;65.80;98205.66;5200086;28;20279;-69
2023/05/24 06:49:59;;;;;;;11.95;5.10;;;13.40;99.90;;;14.63;62.43;98205.69;5198730;28;20720;-70
2023/05/24 06:52:34;;;;;;;9.93;5.85;;;13.50;99.90;;;14.38;62.91;98211.31;5201196;28;20261;-68
2023/05/24 06:55:08;;;;;;;9.95;5.50;;;13.50;99.90;;;14.33;65.03;98209.34;5199303;28;20302;-68
2023/05/24 06:57:41;;;;;;;9.27;5.40;;;13.50;99.90;;;14.63;62.04;98212.53;5200697;28;20233;-68
2023/05/24 07:00:16;;;;;;;8.85;5.32;;;13.70;99.90;;;14.68;62.11;98221.34;5193946;28;20230;-68
2023/05/24 07:02:49;;;;;;;9.32;5.75;;;13.90;99.90;;;14.92;61.30;98221.59;5197574;28;20225;-68
2023/05/24 07:05:23;;;;;;;7.75;5.40;;;14.10;99.90;;;15.01;61.31;98226.28;5205360;28;20314;-68
2023/05/24 07:07:58;;;;;;;10.40;5.78;;;14.10;99.90;;;14.97;61.29;98232.09;5200668;28;20783;-68
2023/05/24 07:10:31;;;;;;;8.63;5.43;;;14.00;99.90;;;15.01;61.74;98234.00;5208787;28;20256;-68
2023/05/24 07:13:05;;;;;;;10.75;5.53;;;14.10;99.90;;;15.15;59.89;98245.78;5195565;28;20234;-68
2023/05/24 07:15:40;;;;;;;9.90;5.60;;;14.20;99.90;;;15.10;61.30;98242.13;5203465;28;20248;-69
2023/05/24 07:18:13;;;;;;;10.57;5.65;;;14.20;99.90;;;15.19;60.21;98239.09;5198977;28;20705;-69
2023/05/24 07:20:46;;;;;;;11.90;5.47;;;14.20;99.90;;;15.32;59.93;98254.28;5190452;28;20222;-70
2023/05/24 07:23:21;;;;;;;6.90;5.10;;;14.20;99.90;;;15.06;60.24;98251.41;5199638;28;20226;-69
2023/05/24 07:25:54;;;;;;;9.93;5.45;;;14.00;99.90;;;14.72;61.95;98254.13;5204010;28;20229;-69
2023/05/24 07:28:27;;;;;;;8.02;5.07;;;13.80;99.90;;;14.92;61.34;98251.59;5200167;28;20311;-69
2023/05/24 07:31:01;;;;;;;10.27;5.45;;;13.90;99.90;;;14.71;61.83;98247.22;5199918;28;20238;-69
2023/05/24 07:33:36;;;;;;;9.90;5.30;;;13.80;99.90;;;14.83;61.15;98258.06;5202099;28;20292;-69
2023/05/24 07:36:10;;;;;;;7.57;4.97;;;13.90;99.90;;;14.77;60.94;98252.66;5205616;28;20668;-69
2023/05/24 07:38:45;;;;;;;10.82;5.20;;;13.80;99.90;;;14.64;62.07;98258.88;5198736;28;20268;-69
2023/05/24 07:41:19;;;;;;;10.15;5.65;;;13.70;99.90;;;14.62;61.84;98262.19;5202326;28;20330;-69
2023/05/24 07:43:52;;;;;;;6.35;5.45;;;13.70;99.90;;;14.69;61.09;98247.94;5196907;28;20233;-69
2023/05/24 07:46:25;;;;;;;9.18;5.28;;;13.80;99.90;;;14.83;60.71;98247.78;5196059;28;20233;-70
2023/05/24 07:48:59;;;;;;;9.50;5.60;;;13.90;99.90;;;14.77;60.67;98257.78;5202183;28;20217;-68
2023/05/24 07:51:32;;;;;;;9.75;5.47;;;13.80;99.90;;;14.92;60.33;98261.88;5202495;28;20709;-68
2023/05/24 07:54:07;;;;;;;11.02;5.15;;;13.90;99.90;;;14.82;60.90;98261.47;5197048;28;20649;-68
2023/05/24 07:56:41;;;;;;;10.23;5.57;;;13.90;99.90;;;14.83;59.99;98258.06;5194217;28;20241;-68
2023/05/24 07:59:14;;;;;;;9.35;5.40;;;13.90;99.90;;;14.99;60.69;98263.91;5196884;28;20319;-68
2023/05/24 08:01:48;;;;;;;9.82;5.38;;;13.90;99.90;;;14.94;60.96;98260.28;5191297;28;20730;-68
2023/05/24 08:04:21;;;;;;;8.85;5.20;;;13.90;99.90;;;14.81;61.56;98264.84;5196418;28;20337;-68
2023/05/24 08:06:54;;;;;;;8.98;6.05;;;13.90;99.90;;;14.52;61.56;98266.03;5193141;28;20949;-70
2023/05/24 08:09:32;;;;;;;6.53;4.75;;;13.70;99.90;;;14.76;61.35;98266.31;5189374;28;20293;-68
2023/05/24 08:12:07;;;;;;;9.73;5.50;;;13.80;99.90;;;14.40;62.33;98281.72;5188753;28;20314;-69
2023/05/24 08:14:40;;;;;;;7.95;5.45;;;13.60;99.90;;;14.59;61.50;98269.75;5194779;28;20253;-68
2023/05/24 08:17:13;;;;;;;10.18;5.53;;;13.70;99.90;;;14.65;61.72;98285.53;5194008;28;20234;-68
2023/05/24 08:19:46;;;;;;;8.98;5.60;;;13.70;99.90;;;14.76;61.19;98286.00;5190224;28;20309;-69
2023/05/24 08:22:20;;;;;;;8.93;5.00;;;13.80;99.90;;;14.45;60.68;98286.19;5192156;28;20223;-69
2023/05/24 08:24:55;;;;;;;10.07;5.93;;;13.60;99.90;;;14.48;61.06;98282.09;5191363;28;20584;-69
2023/05/24 08:27:29;;;;;;;10.63;5.60;;;13.60;99.90;;;14.24;61.67;98289.47;5190679;28;20312;-68
2023/05/24 08:30:03;;;;;;;8.70;5.93;;;13.40;99.90;;;14.14;62.52;98288.16;5188627;28;20252;-68
2023/05/24 08:32:37;;;;;;;9.52;5.35;;;13.40;99.90;;;14.45;63.05;98286.19;5190116;28;20694;-69
2023/05/24 08:35:10;;;;;;;9.02;5.30;;;13.50;99.90;;;14.57;62.41;98287.72;5184993;28;20295;-69
2023/05/24 08:37:53;;;;;;;12.18;5.35;;;13.70;99.90;;;14.62;61.65;98293.06;5188333;28;20221;-69
2023/05/24 08:40:28;;;;;;;11.23;5.47;;;13.60;99.90;;;14.71;63.89;98298.69;5186575;28;20703;-69
2023/05/24 08:43:02;;;;;;;10.25;5.68;;;13.70;99.90;;;14.68;60.92;98298.53;5191578;28;20233;-69
2023/05/24 08:45:38;;;;;;;9.68;5.22;;;13.80;99.90;;;14.80;61.24;98299.13;5189688;28;20315;-69
2023/05/24 08:48:12;;;;;;;14.50;6.38;;;13.90;99.90;;;14.98;58.65;98291.38;5185838;28;20240;-69
2023/05/24 08:50:47;;;;;;;8.75;5.40;;;14.10;99.90;;;15.13;58.16;98298.91;5194239;28;20234;-69
2023/05/24 08:53:22;;;;;;;10.13;5.40;;;14.20;99.90;;;14.87;57.62;98305.41;5184582;28;20253;-69
2023/05/24 08:55:57;;;;;;;10.18;5.90;;;14.00;99.90;;;14.76;56.96;98302.31;5181497;28;20284;-68
2023/05/24 08:58:30;;;;;;;12.38;5.50;;;14.00;99.90;;;14.84;57.61;98302.69;5184821;28;20304;-69
2023/05/24 09:01:06;;;;;;;9.90;5.43;;;13.90;99.90;;;14.96;58.19;98302.41;5187042;28;20329;-69
2023/05/24 09:03:41;;;;;;;10.85;5.63;;;14.00;99.90;;;15.10;56.70;98309.06;5190120;28;20221;-68
2023/05/24 09:06:18;;;;;;;10.43;5.03;;;14.10;99.90;;;15.21;57.26;98302.72;5194249;28;20225;-69
2023/05/24 09:08:52;;;;;;;12.40;5.90;;;14.20;99.90;;;15.14;58.05;98304.94;5193594;28;20247;-69
2023/05/24 09:11:29;;;;;;;10.85;5.72;;;14.20;99.90;;;15.01;56.94;98308.66;5187733;28;20233;-69
2023/05/24 09:14:02;;;;;;;14.90;5.70;;;14.10;99.90;;;14.82;58.17;98301.75;5189980;28;20606;-69
2023/05/24 09:16:36;;;;;;;12.40;6.22;;;14.00;99.90;;;14.78;57.82;98300.72;5196799;28;20245;-69
2023/05/24 09:19:09;;;;;;;11.45;5.80;;;13.90;99.90;;;15.03;57.14;98291.59;5185621;28;20222;-69
2023/05/24 09:21:43;;;;;;;7.82;5.63;;;14.00;99.90;;;14.83;58.27;98304.41;5186933;28;20250;-68
2023/05/24 09:24:16;;;;;;;7.78;5.57;;;13.90;99.90;;;14.65;56.83;98303.53;5192145;28;20258;-69
2023/05/24 09:26:50;;;;;;;10.77;5.90;;;13.90;99.90;;;14.55;57.47;98302.19;5190153;28;20218;-69
2023/05/24 09:29:24;;;;;;;10.88;6.18;;;13.80;99.90;;;14.66;57.65;98309.56;5192396;28;20226;-68
2023/05/24 09:31:57;;;;;;;9.68;5.68;;;13.80;99.90;;;14.65;58.25;98303.53;5187234;28;20321;-68
2023/05/24 09:34:38;;;;;;;10.27;5.93;;;13.80;99.90;;;14.37;59.00;98304.72;5188799;28;20234;-69
2023/05/24 09:37:15;;;;;;;11.95;5.50;;;13.80;99.90;;;14.55;58.12;98299.63;5189334;28;20628;-69
2023/05/24 09:39:50;;;;;;;8.70;5.75;;;13.70;99.90;;;14.88;56.64;98299.47;5187720;28;20338;-69
2023/05/24 09:42:27;;;;;;;9.80;5.53;;;13.90;99.90;;;14.80;58.67;98303.38;5193256;28;20316;-69
2023/05/24 09:45:01;;;;;;;7.53;5.32;;;13.90;99.90;;;15.05;58.13;98301.16;5187034;28;20226;-69
2023/05/24 09:47:36;;;;;;;9.85;5.53;;;14.10;99.90;;;15.00;58.99;98306.91;5192339;28;20229;-69
2023/05/24 09:50:13;;;;;;;9.95;5.53;;;14.10;99.90;;;14.94;58.46;98302.34;5189683;28;20230;-69
2023/05/24 09:52:48;;;;;;;9.98;5.75;;;14.10;99.90;;;15.09;58.33;98307.31;5192309;28;20230;-69
2023/05/24 09:55:22;;;;;;;9.23;5.07;;;14.20;99.90;;;15.25;58.62;98309.81;5186332;28;20659;-69
2023/05/24 09:58:07;;;;;;;12.82;5.72;;;14.20;99.90;;;15.39;57.69;98309.53;5186374;28;21921;-69
2023/05/24 10:00:41;;;;;;;9.68;5.75;;;14.30;99.90;;;15.11;57.37;98305.72;5186976;28;20225;-69
2023/05/24 10:03:15;;;;;;;8.38;6.07;;;14.20;99.90;;;15.16;58.05;98301.63;5193539;28;20221;-68
2023/05/24 10:05:50;;;;;;;10.13;6.07;;;14.20;99.90;;;15.04;57.61;98303.63;5197504;28;20752;-68
2023/05/24 10:08:24;;;;;;;7.45;5.15;;;14.10;99.90;;;15.06;58.25;98296.88;5194713;28;20308;-68
2023/05/24 10:10:57;;;;;;;9.27;5.63;;;14.10;99.90;;;15.18;58.29;98300.00;5200405;28;20237;-68
2023/05/24 10:13:34;;;;;;;10.85;5.40;;;14.10;99.90;;;15.16;57.69;98293.91;5199450;28;20245;-68
2023/05/24 10:16:07;;;;;;;8.45;5.68;;;14.20;99.90;;;15.24;59.32;98292.56;5195276;28;20226;-69
2023/05/24 10:18:40;;;;;;;11.15;5.57;;;14.20;99.90;;;15.25;59.01;98298.59;5195021;28;20264;-69
2023/05/24 10:21:14;;;;;;;10.35;5.22;;;14.30;99.90;;;15.47;58.34;98300.44;5198984;28;20727;-68
2023/05/24 10:23:51;;;;;;;10.20;5.13;;;14.40;99.90;;;15.38;58.83;98303.50;5200593;28;20217;-68
2023/05/24 10:26:25;;;;;;;10.55;5.55;;;14.40;99.90;;;15.45;58.22;98308.13;5198709;28;20227;-68
2023/05/24 10:29:06;;;;;;;10.80;5.38;;;14.50;99.90;;;15.49;59.38;98304.00;5198228;28;20267;-68
2023/05/24 10:31:42;;;;;;;8.05;5.57;;;14.40;99.90;;;15.46;59.15;98303.84;5200781;28;20260;-68
2023/05/24 10:34:16;;;;;;;11.95;6.05;;;14.30;99.90;;;15.32;57.91;98305.81;5198581;28;20217;-67
2023/05/24 10:36:50;;;;;;;12.88;5.80;;;14.20;99.90;;;15.43;57.90;98307.16;5197515;28;20218;-68
2023/05/24 10:39:25;;;;;;;10.40;5.20;;;14.30;99.90;;;15.47;58.47;98313.34;5192615;28;20835;-68
2023/05/24 10:42:03;;;;;;;13.18;6.20;;;14.40;99.90;;;15.22;56.93;98304.50;5191297;28;20233;-68
2023/05/24 10:44:39;;;;;;;10.98;5.95;;;14.20;99.90;;;15.28;56.84;98298.72;5197228;28;20218;-68
2023/05/24 10:47:15;;;;;;;12.50;5.82;;;14.30;99.90;;;14.88;57.03;98299.47;5195330;28;20274;-68
2023/05/24 10:49:51;;;;;;;7.80;5.22;;;14.00;99.90;;;14.91;57.01;98293.56;5197450;28;20279;-68